Time;durP1;ratioP1;P1;durP2;ratioP2;P2;SDS_P1;SDS_P2;PMS_P1;PMS_P2;Temp;Humidity;BMP_temperature;BMP_pressure;BME280_temperature;BME280_humidity;BME280_pressure;Samples;Min_cycle;Max_cycle;Signal;HPM_P1;HPM_P2
2022/11/13 00:00:41;;;;;;;;;;;;;;;-143.57;100.00;51295.03;5078866;28;19942;-70
2022/11/13 00:03:28;;;;;;;;;;;;;;;-143.57;100.00;51267.19;5079472;28;20203;-70
2022/11/13 00:06:14;;;;;;;;;;;;;;;-143.57;100.00;51291.06;5081135;28;19938;-70
2022/11/13 00:08:59;;;;;;;;;;;;;;;-143.57;100.00;51283.09;5081038;28;20428;-70
2022/11/13 00:11:44;;;;;;;;;;;;;;;-143.57;100.00;51273.16;5079220;28;19935;-71
2022/11/13 00:14:29;;;;;;;;;;;;;;;-143.57;100.00;51263.22;5080333;28;19976;-70
2022/11/13 00:17:14;;;;;;;;;;;;;;;-143.57;100.00;51318.88;5082312;28;19931;-70
2022/11/13 00:19:59;;;;;;;;;;;;;;;-143.57;100.00;51263.22;5082132;28;20602;-70
2022/11/13 00:22:44;;;;;;;;;;;;;;;-143.57;100.00;51293.03;5084219;28;20336;-71
2022/11/13 00:25:29;;;;;;;;;;;;;;;-143.57;100.00;51293.03;5080945;28;19992;-71
2022/11/13 00:28:14;;;;;;;;;;;;;;;-143.57;100.00;51279.13;5081694;28;19953;-70
2022/11/13 00:31:00;;;;;;;;;;;;;;;-143.57;100.00;51283.09;5079860;28;20411;-71
2022/11/13 00:33:46;;;;;;;;;;;;;;;-143.57;100.00;51247.31;5096169;28;19931;-71
2022/11/13 00:36:51;;;;;;;;;;;;;;;-143.57;100.00;51283.09;5085311;28;20448;-70
2022/11/13 00:39:36;;;;;;;;;;;;;;;-143.57;100.00;51304.97;5086076;28;20427;-71
2022/11/13 00:42:21;;;;;;;;;;;;;;;-143.57;100.00;51271.19;5084134;28;20543;-72
2022/11/13 00:45:07;;;;;;;;;;;;;;;-143.57;100.00;51283.09;5085713;28;20030;-70
2022/11/13 00:47:53;;;;;;;;;;;;;;;-143.57;100.00;51251.31;5086775;28;20032;-70
2022/11/13 00:50:38;;;;;;;;;;;;;;;-143.57;100.00;51271.19;5084077;28;19938;-70
2022/11/13 00:53:23;;;;;;;;;;;;;;;-143.57;100.00;51275.16;5085328;28;19966;-71
2022/11/13 00:56:08;;;;;;;;;;;;;;;-143.57;100.00;51249.31;5083901;28;19939;-71
2022/11/13 00:58:53;;;;;;;;;;;;;;;-143.57;100.00;51227.44;5082706;28;19997;-70
2022/11/13 01:01:39;;;;;;;;;;;;;;;-143.57;100.00;51275.16;5082730;28;20113;-70
2022/11/13 01:04:23;;;;;;;;;;;;;;;-143.57;100.00;51271.19;5085503;28;20325;-71
2022/11/13 01:07:09;;;;;;;;;;;;;;;-143.57;100.00;51273.16;5084443;28;20065;-70
2022/11/13 01:09:53;;;;;;;;;;;;;;;-143.57;100.00;51295.03;5083958;28;19931;-70
2022/11/13 01:12:39;;;;;;;;;;;;;;;-143.57;100.00;51265.22;5084132;28;19934;-71
2022/11/13 01:15:24;;;;;;;;;;;;;;;-143.57;100.00;51283.09;5081972;28;19988;-70
2022/11/13 01:18:10;;;;;;;;;;;;;;;-143.57;100.00;51279.13;5086696;28;19955;-70
2022/11/13 01:21:01;;;;;;;;;;;;;;;-143.57;100.00;51279.13;5084045;28;20091;-70
2022/11/13 01:23:46;;;;;;;;;;;;;;;-143.57;100.00;51259.25;5082596;28;19935;-71
2022/11/13 01:26:31;;;;;;;;;;;;;;;-143.57;100.00;51275.16;5083478;28;20685;-71
2022/11/13 01:29:16;;;;;;;;;;;;;;;-143.57;100.00;51267.19;5082487;28;20510;-70
2022/11/13 01:32:02;;;;;;;;;;;;;;;-143.57;100.00;51273.16;5084213;28;19947;-70
2022/11/13 01:34:47;;;;;;;;;;;;;;;-143.57;100.00;51263.22;5081202;28;19977;-72
2022/11/13 01:37:32;;;;;;;;;;;;;;;-143.57;100.00;51263.22;5083963;28;19989;-70
2022/11/13 01:40:17;;;;;;;;;;;;;;;-143.57;100.00;51263.22;5086621;28;20024;-71
2022/11/13 01:43:21;;;;;;;;;;;;;;;-143.57;100.00;51243.34;5081188;28;19931;-70
2022/11/13 01:46:16;;;;;;;;;;;;;;;-143.57;100.00;51283.09;5081587;28;19935;-71
2022/11/13 01:49:11;;;;;;;;;;;;;;;-143.57;100.00;51289.06;5083682;28;20053;-70
2022/11/13 01:52:04;;;;;;;;;;;;;;;-143.57;100.00;51261.25;5084733;28;19952;-70
2022/11/13 01:54:51;;;;;;;;;;;;;;;-143.57;100.00;51281.13;5083338;28;19934;-70
2022/11/13 01:57:37;;;;;;;;;;;;;;;-143.57;100.00;51287.09;5082456;28;20376;-71
2022/11/13 02:00:22;;;;;;;;;;;;;;;-143.57;100.00;51310.94;5079764;28;19939;-70
2022/11/13 02:03:07;;;;;;;;;;;;;;;-143.57;100.00;51293.03;5082225;28;19949;-70
2022/11/13 02:05:53;;;;;;;;;;;;;;;-143.57;100.00;51299.00;5083324;28;19989;-70
2022/11/13 02:08:38;;;;;;;;;;;;;;;-143.57;100.00;51203.59;5085888;28;19962;-70
2022/11/13 02:11:24;;;;;;;;;;;;;;;-143.57;100.00;51263.22;5082312;28;19935;-71
2022/11/13 02:14:10;;;;;;;;;;;;;;;-143.57;100.00;51275.16;5085323;28;19938;-70
2022/11/13 02:16:57;;;;;;;;;;;;;;;-143.57;100.00;51267.19;5081227;28;20343;-71
2022/11/13 02:19:47;;;;;;;;;;;;;;;-143.57;100.00;51271.19;5085441;28;20537;-70
2022/11/13 02:22:39;;;;;;;;;;;;;;;-143.57;100.00;51267.19;5082151;28;19935;-70
2022/11/13 02:25:25;;;;;;;;;;;;;;;-143.57;100.00;51271.19;5085015;28;19958;-71
2022/11/13 02:28:10;;;;;;;;;;;;;;;-143.57;100.00;51255.28;5084253;28;19950;-70
2022/11/13 02:30:55;;;;;;;;;;;;;;;-143.57;100.00;51275.16;5081033;28;20316;-70
2022/11/13 02:33:40;;;;;;;;;;;;;;;-143.57;100.00;51287.09;5082371;28;19931;-70
2022/11/13 02:36:27;;;;;;;;;;;;;;;-143.57;100.00;51267.19;5081059;28;19970;-70
2022/11/13 02:39:12;;;;;;;;;;;;;;;-143.57;100.00;51239.38;5081462;28;20069;-71
2022/11/13 02:41:57;;;;;;;;;;;;;;;-143.57;100.00;51273.16;5082499;28;19931;-71
2022/11/13 02:44:42;;;;;;;;;;;;;;;-143.57;100.00;51293.03;5082459;28;20013;-70
2022/11/13 02:47:27;;;;;;;;;;;;;;;-143.57;100.00;51239.38;5081522;28;20408;-71
2022/11/13 02:50:13;;;;;;;;;;;;;;;-143.57;100.00;51306.97;5080624;28;19934;-71
2022/11/13 02:52:58;;;;;;;;;;;;;;;-143.57;100.00;51261.25;5081593;28;20400;-70
2022/11/13 02:55:44;;;;;;;;;;;;;;;-143.57;100.00;51253.28;5079571;28;19935;-71
2022/11/13 02:58:28;;;;;;;;;;;;;;;-143.57;100.00;51265.22;5068703;28;20896;-70
2022/11/13 03:01:14;;;;;;;;;;;;;;;-143.57;100.00;51233.41;5079774;28;20206;-70
2022/11/13 03:04:00;;;;;;;;;;;;;;;-143.57;100.00;51279.13;5080411;28;19950;-71
2022/11/13 03:06:44;;;;;;;;;;;;;;;-143.57;100.00;51295.03;5079937;28;20024;-71
2022/11/13 03:09:30;;;;;;;;;;;;;;;-143.57;100.00;51275.16;5067488;28;20080;-71
2022/11/13 03:12:15;;;;;;;;;;;;;;;-143.57;100.00;51267.19;5081030;28;19939;-71
2022/11/13 03:15:00;;;;;;;;;;;;;;;-143.57;100.00;51275.16;5080936;28;19935;-70
2022/11/13 03:17:45;;;;;;;;;;;;;;;-143.57;100.00;51265.22;5080039;28;19935;-70
2022/11/13 03:20:31;;;;;;;;;;;;;;;-143.57;100.00;51318.88;5083211;28;19958;-70
2022/11/13 03:23:16;;;;;;;;;;;;;;;-143.57;100.00;51283.09;5079936;28;20420;-70
2022/11/13 03:26:01;;;;;;;;;;;;;;;-143.57;100.00;51283.09;5065492;28;19935;-70
2022/11/13 03:28:47;;;;;;;;;;;;;;;-143.57;100.00;51285.09;5082613;28;19967;-70
2022/11/13 03:31:32;;;;;;;;;;;;;;;-143.57;100.00;51314.91;5084223;28;19954;-70
2022/11/13 03:34:17;;;;;;;;;;;;;;;-143.57;100.00;51283.09;5080932;28;20313;-71
2022/11/13 03:37:02;;;;;;;;;;;;;;;-143.57;100.00;51295.03;5066001;28;19931;-70
2022/11/13 03:39:47;;;;;;;;;;;;;;;-143.57;100.00;51283.09;5079920;28;19935;-71
2022/11/13 03:42:33;;;;;;;;;;;;;;;-143.57;100.00;51267.19;5079199;28;20344;-70
2022/11/13 03:45:17;;;;;;;;;;;;;;;-143.57;100.00;51289.06;5080889;28;19934;-71
2022/11/13 03:48:03;;;;;;;;;;;;;;;-143.57;100.00;51279.13;5081396;28;19939;-71
2022/11/13 03:50:50;;;;;;;;;;;;;;;-143.57;100.00;51306.97;5079950;28;20054;-71
2022/11/13 03:53:35;;;;;;;;;;;;;;;-143.57;100.00;51271.19;5079553;28;19934;-70
2022/11/13 03:56:21;;;;;;;;;;;;;;;-143.57;100.00;51283.09;5080714;28;19985;-70
2022/11/13 03:59:06;;;;;;;;;;;;;;;-143.57;100.00;51293.03;5080398;28;19938;-70
2022/11/13 04:01:51;;;;;;;;;;;;;;;-143.57;100.00;51267.19;5080440;28;19939;-69
2022/11/13 04:04:37;;;;;;;;;;;;;;;-143.57;100.00;51275.16;5079287;28;19931;-69
2022/11/13 04:07:22;;;;;;;;;;;;;;;-143.57;100.00;51287.09;5083299;28;19935;-70
2022/11/13 04:10:07;;;;;;;;;;;;;;;-143.57;100.00;51279.13;5080989;28;20430;-70
2022/11/13 04:12:52;;;;;;;;;;;;;;;-143.57;100.00;51287.09;5081766;28;19935;-71
2022/11/13 04:15:37;;;;;;;;;;;;;;;-143.57;100.00;51287.09;5081171;28;19931;-69
2022/11/13 04:18:22;;;;;;;;;;;;;;;-143.57;100.00;51308.94;5080184;28;19934;-70
2022/11/13 04:21:07;;;;;;;;;;;;;;;-143.57;100.00;51275.16;5081119;28;20956;-70
2022/11/13 04:23:52;;;;;;;;;;;;;;;-143.57;100.00;51287.09;5081268;28;19934;-69
2022/11/13 04:26:37;;;;;;;;;;;;;;;-143.57;100.00;51285.09;5078642;28;19931;-70
2022/11/13 04:29:22;;;;;;;;;;;;;;;-143.57;100.00;51275.16;5079521;28;19934;-70
2022/11/13 04:32:07;;;;;;;;;;;;;;;-143.57;100.00;51303.00;5079465;28;19984;-70
2022/11/13 04:34:52;;;;;;;;;;;;;;;-143.57;100.00;51287.09;5083807;28;19935;-71
2022/11/13 04:37:37;;;;;;;;;;;;;;;-143.57;100.00;51279.13;5081247;28;19938;-71
2022/11/13 04:40:22;;;;;;;;;;;;;;;-143.57;100.00;51299.00;5079189;28;19935;-71
2022/11/13 04:43:07;;;;;;;;;;;;;;;-143.57;100.00;51243.34;5077963;28;19931;-71
2022/11/13 04:45:53;;;;;;;;;;;;;;;-143.57;100.00;51275.16;5077680;28;19935;-70
2022/11/13 04:48:37;;;;;;;;;;;;;;;-143.57;100.00;51231.41;5078536;28;20316;-70
2022/11/13 04:51:23;;;;;;;;;;;;;;;-143.57;100.00;51281.13;5082515;28;19934;-70
2022/11/13 04:54:07;;;;;;;;;;;;;;;-143.57;100.00;51279.13;5081127;28;19935;-71
2022/11/13 04:56:53;;;;;;;;;;;;;;;-143.57;100.00;51269.19;5080429;28;20317;-70
2022/11/13 04:59:38;;;;;;;;;;;;;;;-143.57;100.00;51287.09;5079650;28;20238;-70
2022/11/13 05:02:23;;;;;;;;;;;;;;;-143.57;100.00;51338.78;5077729;28;19998;-70
2022/11/13 05:05:08;;;;;;;;;;;;;;;-143.57;100.00;51291.06;5077753;28;20017;-71
2022/11/13 05:07:53;;;;;;;;;;;;;;;-143.57;100.00;51299.00;5082421;28;19935;-71
2022/11/13 05:10:38;;;;;;;;;;;;;;;-143.57;100.00;51316.91;5082287;28;20564;-70
2022/11/13 05:13:24;;;;;;;;;;;;;;;-143.57;100.00;51287.09;5081727;28;19980;-71
2022/11/13 05:16:10;;;;;;;;;;;;;;;-143.57;100.00;51295.03;5078951;28;19939;-71
2022/11/13 05:18:58;;;;;;;;;;;;;;;-143.57;100.00;51287.09;5084941;28;19930;-71
2022/11/13 05:21:43;;;;;;;;;;;;;;;-143.57;100.00;51295.03;5069373;28;19954;-70
2022/11/13 05:24:29;;;;;;;;;;;;;;;-143.57;100.00;51275.16;5080741;28;19935;-71
2022/11/13 05:27:14;;;;;;;;;;;;;;;-143.57;100.00;51306.97;5084277;28;20320;-72
2022/11/13 05:30:01;;;;;;;;;;;;;;;-143.57;100.00;51271.19;5081885;28;20360;-71
2022/11/13 05:32:47;;;;;;;;;;;;;;;-143.57;100.00;51287.09;5083563;28;20411;-71
2022/11/13 05:35:32;;;;;;;;;;;;;;;-143.57;100.00;51293.03;5083199;28;19935;-71
2022/11/13 05:38:17;;;;;;;;;;;;;;;-143.57;100.00;51283.09;5084214;28;19939;-72
2022/11/13 05:41:02;;;;;;;;;;;;;;;-143.57;100.00;51291.06;5083100;28;19935;-71
2022/11/13 05:43:47;;;;;;;;;;;;;;;-143.57;100.00;51263.22;5082886;28;19943;-72
2022/11/13 05:46:33;;;;;;;;;;;;;;;-143.57;100.00;51310.94;5071876;28;19935;-71
2022/11/13 05:49:18;;;;;;;;;;;;;;;-143.57;100.00;51295.03;5082347;28;19931;-71
2022/11/13 05:52:03;;;;;;;;;;;;;;;-143.57;100.00;51326.84;5083679;28;20065;-71
2022/11/13 05:54:48;;;;;;;;;;;;;;;-143.57;100.00;51306.97;5082348;28;19935;-71
2022/11/13 05:57:33;;;;;;;;;;;;;;;-143.57;100.00;51263.22;5083291;28;19935;-71
2022/11/13 06:00:18;;;;;;;;;;;;;;;-143.57;100.00;51291.06;5083273;28;20061;-72
2022/11/13 06:03:04;;;;;;;;;;;;;;;-143.57;100.00;51275.16;5068170;28;19938;-71
2022/11/13 06:05:49;;;;;;;;;;;;;;;-143.57;100.00;51291.06;5082857;28;19934;-70
2022/11/13 06:08:34;;;;;;;;;;;;;;;-143.57;100.00;51287.09;5083658;28;19955;-72
2022/11/13 06:11:23;;;;;;;;;;;;;;;-143.57;100.00;51271.19;5082458;28;20447;-72
2022/11/13 06:14:08;;;;;;;;;;;;;;;-143.57;100.00;51279.13;5081838;28;19935;-71
2022/11/13 06:16:53;;;;;;;;;;;;;;;-143.57;100.00;51299.00;5080724;28;20069;-70
2022/11/13 06:19:39;;;;;;;;;;;;;;;-143.57;100.00;51283.09;5079986;28;20001;-71
2022/11/13 06:22:24;;;;;;;;;;;;;;;-143.57;100.00;51239.38;5081538;28;20174;-71
2022/11/13 06:25:09;;;;;;;;;;;;;;;-143.57;100.00;51283.09;5080297;28;20410;-72
2022/11/13 06:27:54;;;;;;;;;;;;;;;-143.57;100.00;51275.16;5083046;28;19931;-71
2022/11/13 06:30:39;;;;;;;;;;;;;;;-143.57;100.00;51263.22;5081919;28;19935;-71
2022/11/13 06:33:24;;;;;;;;;;;;;;;-143.57;100.00;51303.00;5083528;28;20313;-71
2022/11/13 06:36:11;;;;;;;;;;;;;;;-143.57;100.00;51265.22;5070262;28;19935;-71
2022/11/13 06:38:57;;;;;;;;;;;;;;;-143.57;100.00;51267.19;5081362;28;19976;-71
2022/11/13 06:41:43;;;;;;;;;;;;;;;-143.57;100.00;51279.13;5081323;28;19935;-71
2022/11/13 06:44:28;;;;;;;;;;;;;;;-143.57;100.00;51267.19;5082167;28;20585;-72
2022/11/13 06:47:13;;;;;;;;;;;;;;;-143.57;100.00;51295.03;5080865;28;20426;-71
2022/11/13 06:49:58;;;;;;;;;;;;;;;-143.57;100.00;51283.09;5069546;28;19930;-71
2022/11/13 06:52:42;;;;;;;;;;;;;;;-143.57;100.00;51306.97;5084023;28;19951;-70
2022/11/13 06:55:27;;;;;;;;;;;;;;;-143.57;100.00;51303.00;5083244;28;19931;-70
2022/11/13 06:58:13;;;;;;;;;;;;;;;-143.57;100.00;51291.06;5082599;28;19962;-71
2022/11/13 07:01:03;;;;;;;;;;;;;;;-143.57;100.00;51267.19;5079839;28;20066;-71
2022/11/13 07:03:48;;;;;;;;;;;;;;;-143.57;100.00;51275.16;5082941;28;20009;-71
2022/11/13 07:06:33;;;;;;;;;;;;;;;-143.57;100.00;51301.00;5081658;28;19931;-71
2022/11/13 07:09:24;;;;;;;;;;;;;;;-143.57;100.00;51314.91;5081017;28;19931;-71
2022/11/13 07:12:09;;;;;;;;;;;;;;;-143.57;100.00;51285.09;5082046;28;19931;-71
2022/11/13 07:14:54;;;;;;;;;;;;;;;-143.57;100.00;51289.06;5082613;28;19943;-71
2022/11/13 07:17:39;;;;;;;;;;;;;;;-143.57;100.00;51271.19;5080363;28;19946;-71
2022/11/13 07:20:25;;;;;;;;;;;;;;;-143.57;100.00;51263.22;5079316;28;19931;-71
2022/11/13 07:23:11;;;;;;;;;;;;;;;-143.57;100.00;51322.88;5080324;28;20416;-71
2022/11/13 07:25:56;;;;;;;;;;;;;;;-143.57;100.00;51306.97;5081339;28;20482;-70
2022/11/13 07:28:43;;;;;;;;;;;;;;;-143.57;100.00;51314.91;5085028;28;21213;-72
2022/11/13 07:31:28;;;;;;;;;;;;;;;-143.57;100.00;51304.97;5080681;28;20001;-71
2022/11/13 07:34:13;;;;;;;;;;;;;;;-143.57;100.00;51291.06;5081217;28;19935;-71
2022/11/13 07:36:59;;;;;;;;;;;;;;;-143.57;100.00;51301.00;5079860;28;19935;-71
2022/11/13 07:39:44;;;;;;;;;;;;;;;-143.57;100.00;51299.00;5080068;28;20183;-72
2022/11/13 07:42:30;;;;;;;;;;;;;;;-143.57;100.00;51289.06;5081358;28;19931;-72
2022/11/13 07:45:15;;;;;;;;;;;;;;;-143.57;100.00;51304.97;5080277;28;20058;-72
2022/11/13 07:48:01;;;;;;;;;;;;;;;-143.57;100.00;51287.09;5080765;28;19950;-75
2022/11/13 07:50:46;;;;;;;;;;;;;;;-143.57;100.00;51259.25;5082646;28;20436;-76
2022/11/13 07:53:31;;;;;;;;;;;;;;;-143.57;100.00;51283.09;5082877;28;20009;-75
2022/11/13 07:56:17;;;;;;;;;;;;;;;-143.57;100.00;51285.09;5079651;28;19931;-74
2022/11/13 07:59:07;;;;;;;;;;;;;;;-143.57;100.00;51295.03;5088982;28;20414;-80
2022/11/13 08:01:52;;;;;;;;;;;;;;;-143.57;100.00;51299.00;5076619;28;19938;-72
2022/11/13 08:04:37;;;;;;;;;;;;;;;-143.57;100.00;51314.91;5080360;28;19935;-72
2022/11/13 08:07:22;;;;;;;;;;;;;;;-143.57;100.00;51275.16;5081126;28;19935;-73
2022/11/13 08:10:08;;;;;;;;;;;;;;;-143.57;100.00;51299.00;5081208;28;19951;-69
2022/11/13 08:13:04;;;;;;;;;;;;;;;-143.57;100.00;51263.22;5081255;28;19932;-71
2022/11/13 08:15:49;;;;;;;;;;;;;;;-143.57;100.00;51275.16;5078598;28;19935;-70
2022/11/13 08:18:34;;;;;;;;;;;;;;;-143.57;100.00;51306.97;5080825;28;19981;-73
2022/11/13 08:21:20;;;;;;;;;;;;;;;-143.57;100.00;51303.00;5080677;28;19935;-71
2022/11/13 08:24:05;;;;;;;;;;;;;;;-143.57;100.00;51303.00;5080590;28;19939;-72
2022/11/13 08:26:50;;;;;;;;;;;;;;;-143.57;100.00;51247.31;5077081;28;19936;-72
2022/11/13 08:29:36;;;;;;;;;;;;;;;-143.57;100.00;51263.22;5067897;28;19942;-72
2022/11/13 08:32:21;;;;;;;;;;;;;;;-143.57;100.00;51275.16;5085842;28;20346;-72
2022/11/13 08:35:06;;;;;;;;;;;;;;;-143.57;100.00;51291.06;5086530;28;19960;-72
2022/11/13 08:37:51;;;;;;;;;;;;;;;-143.57;100.00;51283.09;5086181;28;19936;-72
2022/11/13 08:40:37;;;;;;;;;;;;;;;-143.57;100.00;51306.97;5070730;28;19934;-73
2022/11/13 08:43:22;;;;;;;;;;;;;;;-143.57;100.00;51291.06;5086267;28;19981;-72
2022/11/13 08:46:07;;;;;;;;;;;;;;;-143.57;100.00;51267.19;5086248;28;19936;-71
2022/11/13 08:48:52;;;;;;;;;;;;;;;-143.57;100.00;51291.06;5085075;28;19934;-72
2022/11/13 08:51:37;;;;;;;;;;;;;;;-143.57;100.00;51299.00;5085438;28;20400;-72
2022/11/13 08:54:22;;;;;;;;;;;;;;;-143.57;100.00;51271.19;5089649;28;19942;-69
2022/11/13 08:57:07;;;;;;;;;;;;;;;-143.57;100.00;51279.13;5088377;28;19939;-70
2022/11/13 08:59:53;;;;;;;;;;;;;;;-143.57;100.00;51235.41;5068737;28;19935;-70
2022/11/13 09:02:38;;;;;;;;;;;;;;;-143.57;100.00;51279.13;5085074;28;20415;-70
2022/11/13 09:05:23;;;;;;;;;;;;;;;-143.57;100.00;51283.09;5087039;28;19939;-70
2022/11/13 09:08:09;;;;;;;;;;;;;;;-143.57;100.00;51259.25;5087224;28;19931;-68
2022/11/13 09:10:54;;;;;;;;;;;;;;;-143.57;100.00;51267.19;5085607;28;20061;-69
2022/11/13 09:13:40;;;;;;;;;;;;;;;-143.57;100.00;51287.09;5088295;28;19935;-70
2022/11/13 09:16:29;;;;;;;;;;;;;;;-143.57;100.00;51287.09;5090580;28;19973;-69
2022/11/13 09:19:14;;;;;;;;;;;;;;;-143.57;100.00;51303.00;5083905;28;20418;-70
2022/11/13 09:22:00;;;;;;;;;;;;;;;-143.57;100.00;51283.09;5087315;28;20312;-70
2022/11/13 09:24:45;;;;;;;;;;;;;;;-143.57;100.00;51259.25;5089510;28;20352;-73
2022/11/13 09:27:29;;;;;;;;;;;;;;;-143.57;100.00;51299.00;5086570;28;20073;-74
2022/11/13 09:30:15;;;;;;;;;;;;;;;-143.57;100.00;51275.16;5093002;28;19931;-76
2022/11/13 09:33:01;;;;;;;;;;;;;;;-143.57;100.00;51279.13;5091971;28;19955;-76
2022/11/13 09:35:46;;;;;;;;;;;;;;;-143.57;100.00;51291.06;5090456;28;20457;-76
2022/11/13 09:38:32;;;;;;;;;;;;;;;-143.57;100.00;51291.06;5093563;28;19938;-75
2022/11/13 09:41:26;;;;;;;;;;;;;;;-143.57;100.00;51289.06;5088254;28;20009;-71
2022/11/13 09:44:16;;;;;;;;;;;;;;;-143.57;100.00;51291.06;5093455;28;19939;-70
2022/11/13 09:47:06;;;;;;;;;;;;;;;-143.57;100.00;51283.09;5084526;28;19997;-70
2022/11/13 09:49:56;;;;;;;;;;;;;;;-143.57;100.00;51251.31;5085034;28;20428;-70
2022/11/13 09:52:43;;;;;;;;;;;;;;;-143.57;100.00;51295.03;5084885;28;19934;-71
2022/11/13 09:55:31;;;;;;;;;;;;;;;-143.57;100.00;51279.13;5083702;28;20398;-70
2022/11/13 09:58:22;;;;;;;;;;;;;;;-143.57;100.00;51291.06;5082410;28;20439;-70
2022/11/13 10:01:14;;;;;;;;;;;;;;;-143.57;100.00;51275.16;5082316;28;20008;-71
2022/11/13 10:04:02;;;;;;;;;;;;;;;-143.57;100.00;51271.19;5083377;28;19934;-70
2022/11/13 10:06:58;;;;;;;;;;;;;;;-143.57;100.00;51271.19;5083397;28;19935;-71
2022/11/13 10:10:02;;;;;;;;;;;;;;;-143.57;100.00;51287.09;5082880;28;20466;-72
2022/11/13 10:12:50;;;;;;;;;;;;;;;-143.57;100.00;51283.09;5086087;28;20355;-73
2022/11/13 10:15:36;;;;;;;;;;;;;;;-143.57;100.00;51287.09;5071187;28;19981;-73
2022/11/13 10:18:24;;;;;;;;;;;;;;;-143.57;100.00;51263.22;5083242;28;20117;-75
2022/11/13 10:21:26;;;;;;;;;;;;;;;-143.57;100.00;51259.25;5083985;28;19931;-74
2022/11/13 10:24:15;;;;;;;;;;;;;;;-143.57;100.00;51306.97;5084265;28;19963;-75
2022/11/13 10:27:01;;;;;;;;;;;;;;;-143.57;100.00;51267.19;5083325;28;19962;-70
2022/11/13 10:29:46;;;;;;;;;;;;;;;-143.57;100.00;51271.19;5084162;28;19966;-71
2022/11/13 10:32:33;;;;;;;;;;;;;;;-143.57;100.00;51279.13;5081536;28;19930;-71
2022/11/13 10:35:27;;;;;;;;;;;;;;;-143.57;100.00;51279.13;5083698;28;19931;-71
2022/11/13 10:38:29;;;;;;;;;;;;;;;-143.57;100.00;51299.00;5083471;28;20343;-71
2022/11/13 10:41:15;;;;;;;;;;;;;;;-143.57;100.00;51249.31;5084675;28;20458;-70
2022/11/13 10:44:05;;;;;;;;;;;;;;;-143.57;100.00;51271.19;5083483;28;20033;-72
2022/11/13 10:47:03;;;;;;;;;;;;;;;-143.57;100.00;51310.94;5083510;28;19935;-70
2022/11/13 10:49:48;;;;;;;;;;;;;;;-143.57;100.00;51241.34;5082010;28;20372;-70
2022/11/13 10:52:33;;;;;;;;;;;;;;;-143.57;100.00;51279.13;5081745;28;20415;-70
2022/11/13 10:55:21;;;;;;;;;;;;;;;-143.57;100.00;51275.16;5082369;28;20510;-71
2022/11/13 10:58:15;;;;;;;;;;;;;;;-143.57;100.00;51259.25;5082520;28;20118;-70
2022/11/13 11:01:00;;;;;;;;;;;;;;;-143.57;100.00;51263.22;5080532;28;20024;-70
2022/11/13 11:03:49;;;;;;;;;;;;;;;-143.57;100.00;51235.41;5081225;28;19997;-70
2022/11/13 11:06:36;;;;;;;;;;;;;;;-143.57;100.00;51267.19;5082741;28;19935;-71
2022/11/13 11:09:45;;;;;;;;;;;;;;;-143.57;100.00;51279.13;5077768;28;19949;-71
2022/11/13 11:12:31;;;;;;;;;;;;;;;-143.57;100.00;51283.09;5081813;28;20013;-72
2022/11/13 11:15:22;;;;;;;;;;;;;;;-143.57;100.00;51273.16;5080357;28;20175;-71
2022/11/13 11:18:23;;;;;;;;;;;;;;;-143.57;100.00;51287.09;5082316;28;19935;-72
2022/11/13 11:21:11;;;;;;;;;;;;;;;-143.57;100.00;51291.06;5082183;28;20083;-71
2022/11/13 11:23:59;;;;;;;;;;;;;;;-143.57;100.00;51243.34;5082241;28;20086;-71
2022/11/13 11:26:47;;;;;;;;;;;;;;;-143.57;99.38;51283.09;5081870;28;19934;-72
2022/11/13 11:29:53;;;;;;;;;;;;;;;-143.57;97.69;51263.22;5082320;28;20017;-72
2022/11/13 11:32:41;;;;;;;;;;;;;;;-143.57;95.79;51275.16;5094165;27;20345;-72
2022/11/13 11:35:31;;;;;;;;;;;;;;;-143.57;95.85;51263.22;5082022;28;20077;-72
2022/11/13 11:38:31;;;;;;;;;;;;;;;-143.57;97.17;51271.19;5069861;28;19959;-72
2022/11/13 11:41:19;;;;;;;;;;;;;;;-143.57;96.20;51247.31;5080744;28;19934;-72
2022/11/13 11:44:10;;;;;;;;;;;;;;;-143.57;94.90;51275.16;5080445;28;19951;-73
2022/11/13 11:46:56;;;;;;;;;;;;;;;-143.57;63.28;51255.28;5081815;28;20331;-72
2022/11/13 11:49:42;;;;;;;;;;;;;;;-143.57;63.04;51289.06;5080106;28;19935;-73
2022/11/13 11:52:43;;;;;;;;;;;;;;;-143.57;62.87;51287.09;5083024;28;19935;-73
2022/11/13 11:55:28;;;;;;;;;;;;;;;-143.57;62.81;51267.19;5079962;28;19931;-73
2022/11/13 11:58:19;;;;;;;;;;;;;;;-143.57;61.86;51261.25;5079877;28;19988;-73
2022/11/13 12:01:09;;;;;;;;;;;;;;;-143.57;61.08;51283.09;5082810;28;19934;-74
2022/11/13 12:04:09;;;;;;;;;;;;;;;-143.57;60.15;51243.34;5079586;28;20016;-73
2022/11/13 12:07:11;;;;;;;;;;;;;;;-143.57;60.88;51265.22;5081158;28;19989;-73
2022/11/13 12:10:02;;;;;;;;;;;;;;;-143.57;60.47;51269.19;5081377;28;19935;-76
2022/11/13 12:12:57;;;;;;;;;;;;;;;-143.57;60.95;51227.44;5079673;28;19939;-76
2022/11/13 12:15:51;;;;;;;;;;;;;;;-143.57;60.80;51287.09;5079941;28;19955;-76
2022/11/13 12:18:50;;;;;;;;;;;;;;;-143.57;60.05;51283.09;5063742;28;20453;-76
2022/11/13 12:21:58;;;;;;;;;;;;;;;-143.57;61.00;51243.34;5064618;28;19935;-74
2022/11/13 12:24:59;;;;;;;;;;;;;;;-143.57;61.91;51273.16;5079499;28;19939;-76
2022/11/13 12:27:44;;;;;;;;;;;;;;;-143.57;63.26;51251.31;5086137;28;19946;-76
2022/11/13 12:30:42;;;;;;;;;;;;;;;-143.57;64.49;51283.09;5088330;28;19935;-76
2022/11/13 12:33:30;;;;;;;;;;;;;;;-143.57;65.14;51251.31;5087787;28;20815;-74
2022/11/13 12:36:16;;;;;;;;;;;;;;;-143.57;64.49;51261.25;5088394;28;20322;-75
2022/11/13 12:39:17;;;;;;;;;;;;;;;-143.57;64.73;51283.09;5090867;28;19935;-73
2022/11/13 12:42:10;;;;;;;;;;;;;;;-143.57;64.44;51275.16;5088825;28;20408;-74
2022/11/13 12:44:56;;;;;;;;;;;;;;;-143.57;61.88;51223.47;5087476;28;19934;-73
2022/11/13 12:47:42;;;;;;;;;;;;;;;-143.57;58.88;51277.16;5090052;28;20300;-74
2022/11/13 12:50:28;;;;;;;;;;;;;;;-143.57;56.92;51199.63;5087066;28;19934;-73
2022/11/13 12:53:23;;;;;;;;;;;;;;;-143.57;55.72;51231.41;5087088;28;19935;-73
2022/11/13 12:56:13;;;;;;;;;;;;;;;-143.57;53.79;51243.34;5091211;28;19974;-75
2022/11/13 12:59:05;;;;;;;;;;;;;;;-143.57;54.13;51283.09;5089780;28;20443;-72
2022/11/13 13:02:13;;;;;;;;;;;;;;;-143.57;54.97;51215.53;5086516;28;20017;-70
2022/11/13 13:05:07;;;;;;;;;;;;;;;-143.57;55.96;51239.38;5089238;28;19931;-70
2022/11/13 13:08:11;;;;;;;;;;;;;;;-143.57;56.77;51259.25;5073571;28;19935;-74
2022/11/13 13:11:03;;;;;;;;;;;;;;;-143.57;56.98;51227.44;5087519;28;20419;-71
2022/11/13 13:13:54;;;;;;;;;;;;;;;-143.57;58.01;51231.41;5087500;28;20332;-72
2022/11/13 13:16:39;;;;;;;;;;;;;;;-143.57;58.01;51247.31;5088524;28;19931;-71
2022/11/13 13:19:31;;;;;;;;;;;;;;;-143.57;57.45;51265.22;5088903;28;20007;-72
2022/11/13 13:22:33;;;;;;;;;;;;;;;-143.57;58.46;51281.13;5087782;28;20006;-72
2022/11/13 13:25:26;;;;;;;;;;;;;;;-143.57;58.80;51243.34;5086226;28;20049;-72
2022/11/13 13:28:23;;;;;;;;;;;;;;;-143.57;58.77;51249.31;5087167;28;19935;-73
2022/11/13 13:31:11;;;;;;;;;;;;;;;-143.57;58.62;51207.56;5087023;28;19951;-73
2022/11/13 13:33:56;;;;;;;;;;;;;;;-143.57;58.13;51304.97;5085734;28;19935;-72
2022/11/13 13:36:50;;;;;;;;;;;;;;;-143.57;58.76;51225.47;5073208;28;19935;-72
2022/11/13 13:39:45;;;;;;;;;;;;;;;-143.57;58.05;51243.34;5084323;28;19935;-72
2022/11/13 13:42:40;;;;;;;;;;;;;;;-143.57;54.06;51243.34;5084027;28;19935;-72
2022/11/13 13:45:31;;;;;;;;;;;;;;;-143.57;52.06;51239.38;5084327;28;20254;-72
2022/11/13 13:48:19;;;;;;;;;;;;;;;-143.57;48.72;51211.53;5084860;28;19935;-73
2022/11/13 13:51:13;;;;;;;;;;;;;;;-143.57;42.91;51207.56;5083133;28;19938;-72
2022/11/13 13:54:00;;;;;;;;;;;;;;;-143.57;40.27;51211.53;5084002;28;19942;-73
2022/11/13 13:56:45;;;;;;;;;;;;;;;-143.57;40.99;51219.50;5082701;28;19935;-73
2022/11/13 13:59:33;;;;;;;;;;;;;;;-143.57;42.22;51207.56;5084152;28;19939;-73